EmailTwitter


Observations de surface / France / LFMP (07747)

Régions: Québec | Canada | États-Unis | Europe | France | UK | Ailleurs
Station
Affichage
Infos & localisation pour LFMP (07747) | Aide pour décoder les METARs

Observations prises le 2019-09-22 à 19H00 UTC à PERPIGNAN/RIVESA, FR (LFMP)

Etat du ciel: couvert.

Température: 19.0 Celsius

Point de rosée: 10.0 Celsius

Humidité relative: 56%

Vents: Nord-ouest à 17 km/h ou 9 noeuds.

Pression au niveau moyen de la mer: 101.50 kilopascals.

Visibilité horizontale: 6.21 milles terrestres ou 9.94 kilomètres.

Hauteur du plafond: 2073 mètres ( 6800 pieds ).

Observation METAR:

LFMP 221900Z AUTO 31009KT 280V360 9999 OVC068/// 19/10 Q1015 BECMG RA=